sensor_id;sensor_type;location;lat;lon;timestamp;P1;durP1;ratioP1;P2;durP2;ratioP2
28509;SDS011;15723;55.684;37.928;2023-02-28T00:01:25;11.48;;;6.47;;
28509;SDS011;15723;55.684;37.928;2023-02-28T00:03:51;14.35;;;7.95;;
28509;SDS011;15723;55.684;37.928;2023-02-28T00:06:17;13.25;;;6.95;;
28509;SDS011;15723;55.684;37.928;2023-02-28T00:08:44;12.32;;;6.45;;
28509;SDS011;15723;55.684;37.928;2023-02-28T00:11:11;13.35;;;7.07;;
28509;SDS011;15723;55.684;37.928;2023-02-28T00:13:40;15.55;;;7.82;;
28509;SDS011;15723;55.684;37.928;2023-02-28T00:16:09;11.40;;;7.68;;
28509;SDS011;15723;55.684;37.928;2023-02-28T00:18:38;11.90;;;7.65;;
28509;SDS011;15723;55.684;37.928;2023-02-28T00:21:05;14.07;;;7.80;;
28509;SDS011;15723;55.684;37.928;2023-02-28T00:23:32;11.23;;;7.18;;
28509;SDS011;15723;55.684;37.928;2023-02-28T00:25:59;12.18;;;7.70;;
28509;SDS011;15723;55.684;37.928;2023-02-28T00:28:25;13.98;;;7.47;;
28509;SDS011;15723;55.684;37.928;2023-02-28T00:30:51;13.55;;;8.15;;
28509;SDS011;15723;55.684;37.928;2023-02-28T00:33:17;14.30;;;7.68;;
28509;SDS011;15723;55.684;37.928;2023-02-28T00:35:44;13.10;;;7.75;;
28509;SDS011;15723;55.684;37.928;2023-02-28T00:38:12;14.13;;;7.93;;
28509;SDS011;15723;55.684;37.928;2023-02-28T00:40:39;15.15;;;7.95;;
28509;SDS011;15723;55.684;37.928;2023-02-28T00:43:05;14.55;;;7.57;;
28509;SDS011;15723;55.684;37.928;2023-02-28T00:45:31;14.10;;;7.57;;
28509;SDS011;15723;55.684;37.928;2023-02-28T00:47:58;15.85;;;7.82;;
28509;SDS011;15723;55.684;37.928;2023-02-28T00:50:24;16.52;;;7.75;;
28509;SDS011;15723;55.684;37.928;2023-02-28T00:52:50;15.20;;;8.43;;
28509;SDS011;15723;55.684;37.928;2023-02-28T00:55:16;14.02;;;8.43;;
28509;SDS011;15723;55.684;37.928;2023-02-28T00:57:44;13.82;;;7.80;;
28509;SDS011;15723;55.684;37.928;2023-02-28T01:00:10;15.55;;;8.02;;
28509;SDS011;15723;55.684;37.928;2023-02-28T01:02:37;17.15;;;8.65;;
28509;SDS011;15723;55.684;37.928;2023-02-28T01:05:03;17.40;;;8.80;;
28509;SDS011;15723;55.684;37.928;2023-02-28T01:07:30;15.27;;;8.52;;
28509;SDS011;15723;55.684;37.928;2023-02-28T01:09:57;18.00;;;9.68;;
28509;SDS011;15723;55.684;37.928;2023-02-28T01:12:24;18.65;;;9.75;;
28509;SDS011;15723;55.684;37.928;2023-02-28T01:14:50;17.73;;;9.65;;
28509;SDS011;15723;55.684;37.928;2023-02-28T01:17:16;17.60;;;8.25;;
28509;SDS011;15723;55.684;37.928;2023-02-28T01:19:43;18.42;;;9.93;;
28509;SDS011;15723;55.684;37.928;2023-02-28T01:22:09;16.00;;;9.32;;
28509;SDS011;15723;55.684;37.928;2023-02-28T01:24:35;18.08;;;10.90;;
28509;SDS011;15723;55.684;37.928;2023-02-28T01:27:03;19.00;;;9.65;;
28509;SDS011;15723;55.684;37.928;2023-02-28T01:29:29;18.05;;;9.68;;
28509;SDS011;15723;55.684;37.928;2023-02-28T01:31:55;17.42;;;9.82;;
28509;SDS011;15723;55.684;37.928;2023-02-28T01:34:22;22.15;;;11.02;;
28509;SDS011;15723;55.684;37.928;2023-02-28T01:36:50;22.00;;;10.63;;
28509;SDS011;15723;55.684;37.928;2023-02-28T01:39:18;17.45;;;10.38;;
28509;SDS011;15723;55.684;37.928;2023-02-28T01:41:44;21.20;;;11.52;;
28509;SDS011;15723;55.684;37.928;2023-02-28T01:47:14;19.15;;;11.13;;
28509;SDS011;15723;55.684;37.928;2023-02-28T01:49:41;20.50;;;11.57;;
28509;SDS011;15723;55.684;37.928;2023-02-28T01:52:07;18.67;;;10.48;;
28509;SDS011;15723;55.684;37.928;2023-02-28T01:54:40;18.73;;;10.13;;
28509;SDS011;15723;55.684;37.928;2023-02-28T01:57:10;21.83;;;10.85;;
28509;SDS011;15723;55.684;37.928;2023-02-28T01:59:42;16.30;;;9.48;;
28509;SDS011;15723;55.684;37.928;2023-02-28T02:02:16;20.80;;;10.77;;
28509;SDS011;15723;55.684;37.928;2023-02-28T02:04:50;16.05;;;9.32;;
28509;SDS011;15723;55.684;37.928;2023-02-28T02:07:21;15.02;;;9.25;;
28509;SDS011;15723;55.684;37.928;2023-02-28T02:09:48;15.35;;;9.10;;
28509;SDS011;15723;55.684;37.928;2023-02-28T02:12:22;17.15;;;9.05;;
28509;SDS011;15723;55.684;37.928;2023-02-28T02:14:59;17.35;;;9.27;;
28509;SDS011;15723;55.684;37.928;2023-02-28T02:17:51;16.63;;;9.10;;
28509;SDS011;15723;55.684;37.928;2023-02-28T02:27:11;18.27;;;9.00;;
28509;SDS011;15723;55.684;37.928;2023-02-28T02:29:47;17.25;;;9.52;;
28509;SDS011;15723;55.684;37.928;2023-02-28T02:40:42;14.43;;;8.07;;
28509;SDS011;15723;55.684;37.928;2023-02-28T02:43:16;15.73;;;8.18;;
28509;SDS011;15723;55.684;37.928;2023-02-28T02:45:52;17.50;;;8.43;;
28509;SDS011;15723;55.684;37.928;2023-02-28T02:48:24;16.70;;;8.13;;
28509;SDS011;15723;55.684;37.928;2023-02-28T02:50:56;15.10;;;8.13;;
28509;SDS011;15723;55.684;37.928;2023-02-28T02:53:36;14.77;;;7.40;;
28509;SDS011;15723;55.684;37.928;2023-02-28T02:56:08;14.63;;;7.93;;
28509;SDS011;15723;55.684;37.928;2023-02-28T02:58:37;14.95;;;7.38;;
28509;SDS011;15723;55.684;37.928;2023-02-28T03:01:10;15.18;;;7.53;;
28509;SDS011;15723;55.684;37.928;2023-02-28T03:03:41;17.15;;;7.88;;
28509;SDS011;15723;55.684;37.928;2023-02-28T03:06:09;15.75;;;7.95;;
28509;SDS011;15723;55.684;37.928;2023-02-28T03:08:37;14.80;;;7.72;;
28509;SDS011;15723;55.684;37.928;2023-02-28T03:11:05;13.20;;;7.32;;
28509;SDS011;15723;55.684;37.928;2023-02-28T03:25:38;14.25;;;6.68;;
28509;SDS011;15723;55.684;37.928;2023-02-28T03:30:58;17.25;;;7.28;;
28509;SDS011;15723;55.684;37.928;2023-02-28T03:33:58;16.63;;;6.90;;
28509;SDS011;15723;55.684;37.928;2023-02-28T03:36:32;18.63;;;8.33;;
28509;SDS011;15723;55.684;37.928;2023-02-28T03:39:15;11.57;;;6.32;;
28509;SDS011;15723;55.684;37.928;2023-02-28T03:42:01;10.98;;;6.32;;
28509;SDS011;15723;55.684;37.928;2023-02-28T03:44:50;14.18;;;6.60;;
28509;SDS011;15723;55.684;37.928;2023-02-28T03:47:24;13.13;;;6.30;;
28509;SDS011;15723;55.684;37.928;2023-02-28T03:50:13;14.98;;;6.55;;
28509;SDS011;15723;55.684;37.928;2023-02-28T03:52:54;13.30;;;5.90;;
28509;SDS011;15723;55.684;37.928;2023-02-28T03:55:25;10.25;;;5.22;;
28509;SDS011;15723;55.684;37.928;2023-02-28T04:01:23;13.38;;;5.93;;
28509;SDS011;15723;55.684;37.928;2023-02-28T04:03:58;12.02;;;5.40;;
28509;SDS011;15723;55.684;37.928;2023-02-28T04:06:25;9.63;;;5.15;;
28509;SDS011;15723;55.684;37.928;2023-02-28T04:08:52;13.43;;;5.57;;
28509;SDS011;15723;55.684;37.928;2023-02-28T04:14:13;10.32;;;5.53;;
28509;SDS011;15723;55.684;37.928;2023-02-28T04:16:41;14.15;;;5.57;;
28509;SDS011;15723;55.684;37.928;2023-02-28T04:19:08;11.43;;;5.18;;
28509;SDS011;15723;55.684;37.928;2023-02-28T04:21:40;11.10;;;5.32;;
28509;SDS011;15723;55.684;37.928;2023-02-28T04:24:09;12.57;;;5.63;;
28509;SDS011;15723;55.684;37.928;2023-02-28T04:26:40;11.32;;;4.78;;
28509;SDS011;15723;55.684;37.928;2023-02-28T04:29:09;11.75;;;5.05;;
28509;SDS011;15723;55.684;37.928;2023-02-28T04:31:37;12.93;;;5.72;;
28509;SDS011;15723;55.684;37.928;2023-02-28T04:34:04;14.20;;;6.05;;
28509;SDS011;15723;55.684;37.928;2023-02-28T04:36:31;11.70;;;6.20;;
28509;SDS011;15723;55.684;37.928;2023-02-28T04:38:57;12.38;;;5.55;;
28509;SDS011;15723;55.684;37.928;2023-02-28T04:41:24;8.40;;;4.95;;
28509;SDS011;15723;55.684;37.928;2023-02-28T04:43:51;7.88;;;5.13;;
28509;SDS011;15723;55.684;37.928;2023-02-28T04:46:18;11.15;;;5.60;;
28509;SDS011;15723;55.684;37.928;2023-02-28T04:48:46;10.32;;;5.20;;
28509;SDS011;15723;55.684;37.928;2023-02-28T04:51:13;9.32;;;5.05;;
28509;SDS011;15723;55.684;37.928;2023-02-28T04:53:41;8.70;;;4.63;;
28509;SDS011;15723;55.684;37.928;2023-02-28T04:56:09;8.50;;;4.55;;
28509;SDS011;15723;55.684;37.928;2023-02-28T04:58:37;6.75;;;4.25;;
28509;SDS011;15723;55.684;37.928;2023-02-28T05:01:18;6.38;;;4.55;;
28509;SDS011;15723;55.684;37.928;2023-02-28T05:03:47;6.28;;;4.28;;
28509;SDS011;15723;55.684;37.928;2023-02-28T05:06:13;6.72;;;4.38;;
28509;SDS011;15723;55.684;37.928;2023-02-28T05:08:40;6.82;;;4.20;;
28509;SDS011;15723;55.684;37.928;2023-02-28T05:11:08;6.43;;;4.60;;
28509;SDS011;15723;55.684;37.928;2023-02-28T05:13:40;5.28;;;4.05;;
28509;SDS011;15723;55.684;37.928;2023-02-28T05:16:06;7.22;;;4.25;;
28509;SDS011;15723;55.684;37.928;2023-02-28T05:18:34;5.10;;;3.97;;
28509;SDS011;15723;55.684;37.928;2023-02-28T05:21:00;6.20;;;4.50;;
28509;SDS011;15723;55.684;37.928;2023-02-28T05:23:29;5.43;;;3.80;;
28509;SDS011;15723;55.684;37.928;2023-02-28T05:25:55;5.75;;;4.65;;
28509;SDS011;15723;55.684;37.928;2023-02-28T05:28:22;5.50;;;4.20;;
28509;SDS011;15723;55.684;37.928;2023-02-28T05:30:48;7.30;;;4.18;;
28509;SDS011;15723;55.684;37.928;2023-02-28T05:33:14;4.18;;;3.60;;
28509;SDS011;15723;55.684;37.928;2023-02-28T05:35:40;4.88;;;3.70;;
28509;SDS011;15723;55.684;37.928;2023-02-28T05:38:10;5.68;;;3.70;;
28509;SDS011;15723;55.684;37.928;2023-02-28T05:40:38;5.20;;;3.70;;
28509;SDS011;15723;55.684;37.928;2023-02-28T05:43:05;5.57;;;4.10;;
28509;SDS011;15723;55.684;37.928;2023-02-28T05:45:33;5.50;;;3.88;;
28509;SDS011;15723;55.684;37.928;2023-02-28T05:48:00;5.88;;;4.57;;
28509;SDS011;15723;55.684;37.928;2023-02-28T05:50:26;5.03;;;3.67;;
28509;SDS011;15723;55.684;37.928;2023-02-28T05:52:52;4.50;;;3.75;;
28509;SDS011;15723;55.684;37.928;2023-02-28T05:55:18;4.03;;;3.50;;
28509;SDS011;15723;55.684;37.928;2023-02-28T05:57:44;4.65;;;3.83;;
28509;SDS011;15723;55.684;37.928;2023-02-28T06:00:11;7.53;;;4.47;;
28509;SDS011;15723;55.684;37.928;2023-02-28T06:02:40;6.07;;;4.10;;
28509;SDS011;15723;55.684;37.928;2023-02-28T06:05:12;5.65;;;3.83;;
28509;SDS011;15723;55.684;37.928;2023-02-28T06:07:40;4.70;;;3.72;;
28509;SDS011;15723;55.684;37.928;2023-02-28T06:10:07;5.45;;;3.58;;
28509;SDS011;15723;55.684;37.928;2023-02-28T06:12:35;3.83;;;3.42;;
28509;SDS011;15723;55.684;37.928;2023-02-28T06:15:01;4.68;;;4.28;;
28509;SDS011;15723;55.684;37.928;2023-02-28T06:17:29;6.10;;;3.47;;
28509;SDS011;15723;55.684;37.928;2023-02-28T06:19:55;6.15;;;4.28;;
28509;SDS011;15723;55.684;37.928;2023-02-28T06:22:22;6.53;;;3.88;;
28509;SDS011;15723;55.684;37.928;2023-02-28T06:24:48;7.65;;;3.65;;
28509;SDS011;15723;55.684;37.928;2023-02-28T06:27:14;7.70;;;3.72;;
28509;SDS011;15723;55.684;37.928;2023-02-28T06:29:40;5.57;;;3.90;;
28509;SDS011;15723;55.684;37.928;2023-02-28T06:32:06;10.48;;;4.57;;
28509;SDS011;15723;55.684;37.928;2023-02-28T06:34:32;5.50;;;4.20;;
28509;SDS011;15723;55.684;37.928;2023-02-28T06:36:59;5.70;;;3.80;;
28509;SDS011;15723;55.684;37.928;2023-02-28T06:39:29;5.65;;;3.88;;
28509;SDS011;15723;55.684;37.928;2023-02-28T06:41:55;8.27;;;4.25;;
28509;SDS011;15723;55.684;37.928;2023-02-28T06:44:22;5.72;;;4.07;;
28509;SDS011;15723;55.684;37.928;2023-02-28T06:46:52;5.35;;;3.78;;
28509;SDS011;15723;55.684;37.928;2023-02-28T06:49:18;4.70;;;3.53;;
28509;SDS011;15723;55.684;37.928;2023-02-28T06:51:44;6.32;;;4.50;;
28509;SDS011;15723;55.684;37.928;2023-02-28T06:54:11;6.55;;;3.63;;
28509;SDS011;15723;55.684;37.928;2023-02-28T06:56:39;6.40;;;4.78;;
28509;SDS011;15723;55.684;37.928;2023-02-28T06:59:05;5.72;;;3.90;;
28509;SDS011;15723;55.684;37.928;2023-02-28T07:01:31;6.25;;;4.97;;
28509;SDS011;15723;55.684;37.928;2023-02-28T07:03:58;6.72;;;4.15;;
28509;SDS011;15723;55.684;37.928;2023-02-28T07:06:25;4.07;;;3.20;;
28509;SDS011;15723;55.684;37.928;2023-02-28T07:08:52;7.22;;;4.32;;
28509;SDS011;15723;55.684;37.928;2023-02-28T07:11:19;6.13;;;4.00;;
28509;SDS011;15723;55.684;37.928;2023-02-28T07:13:48;8.50;;;4.18;;
28509;SDS011;15723;55.684;37.928;2023-02-28T07:16:16;5.72;;;4.05;;
28509;SDS011;15723;55.684;37.928;2023-02-28T07:18:45;6.38;;;4.18;;
28509;SDS011;15723;55.684;37.928;2023-02-28T07:21:11;5.72;;;4.30;;
28509;SDS011;15723;55.684;37.928;2023-02-28T07:23:38;6.93;;;3.88;;
28509;SDS011;15723;55.684;37.928;2023-02-28T07:26:05;6.60;;;4.05;;
28509;SDS011;15723;55.684;37.928;2023-02-28T07:28:32;7.15;;;3.58;;
28509;SDS011;15723;55.684;37.928;2023-02-28T07:31:05;5.13;;;3.90;;
28509;SDS011;15723;55.684;37.928;2023-02-28T07:33:33;12.10;;;4.68;;
28509;SDS011;15723;55.684;37.928;2023-02-28T07:36:00;6.25;;;3.95;;
28509;SDS011;15723;55.684;37.928;2023-02-28T07:38:28;5.90;;;3.70;;
28509;SDS011;15723;55.684;37.928;2023-02-28T07:40:54;7.50;;;3.92;;
28509;SDS011;15723;55.684;37.928;2023-02-28T07:43:20;5.80;;;3.88;;
28509;SDS011;15723;55.684;37.928;2023-02-28T07:45:46;5.43;;;3.92;;
28509;SDS011;15723;55.684;37.928;2023-02-28T07:48:12;5.28;;;3.75;;
28509;SDS011;15723;55.684;37.928;2023-02-28T07:50:38;6.65;;;4.00;;
28509;SDS011;15723;55.684;37.928;2023-02-28T07:53:04;6.18;;;3.75;;
28509;SDS011;15723;55.684;37.928;2023-02-28T07:55:30;5.93;;;4.38;;
28509;SDS011;15723;55.684;37.928;2023-02-28T07:57:57;6.57;;;3.55;;
28509;SDS011;15723;55.684;37.928;2023-02-28T08:00:23;6.28;;;4.30;;
28509;SDS011;15723;55.684;37.928;2023-02-28T08:02:50;8.55;;;4.57;;
28509;SDS011;15723;55.684;37.928;2023-02-28T08:05:16;6.72;;;4.18;;
28509;SDS011;15723;55.684;37.928;2023-02-28T08:07:42;6.25;;;3.90;;
28509;SDS011;15723;55.684;37.928;2023-02-28T08:10:10;5.25;;;3.78;;
28509;SDS011;15723;55.684;37.928;2023-02-28T08:12:36;10.18;;;3.95;;
28509;SDS011;15723;55.684;37.928;2023-02-28T08:15:02;5.65;;;4.40;;
28509;SDS011;15723;55.684;37.928;2023-02-28T08:17:29;6.72;;;4.40;;
28509;SDS011;15723;55.684;37.928;2023-02-28T08:19:56;6.40;;;4.03;;
28509;SDS011;15723;55.684;37.928;2023-02-28T08:22:22;7.20;;;4.20;;
28509;SDS011;15723;55.684;37.928;2023-02-28T08:24:48;7.85;;;3.88;;
28509;SDS011;15723;55.684;37.928;2023-02-28T08:27:14;9.00;;;4.72;;
28509;SDS011;15723;55.684;37.928;2023-02-28T08:29:40;12.82;;;4.30;;
28509;SDS011;15723;55.684;37.928;2023-02-28T08:32:06;8.30;;;4.70;;
28509;SDS011;15723;55.684;37.928;2023-02-28T08:34:33;9.32;;;4.63;;
28509;SDS011;15723;55.684;37.928;2023-02-28T08:36:59;6.32;;;3.88;;
28509;SDS011;15723;55.684;37.928;2023-02-28T08:39:26;7.38;;;3.80;;
28509;SDS011;15723;55.684;37.928;2023-02-28T08:41:52;6.10;;;4.00;;
28509;SDS011;15723;55.684;37.928;2023-02-28T08:44:18;4.88;;;3.90;;
28509;SDS011;15723;55.684;37.928;2023-02-28T08:46:44;7.15;;;3.85;;
28509;SDS011;15723;55.684;37.928;2023-02-28T08:49:10;6.82;;;4.38;;
28509;SDS011;15723;55.684;37.928;2023-02-28T08:51:38;7.13;;;4.80;;
28509;SDS011;15723;55.684;37.928;2023-02-28T08:54:04;7.38;;;4.18;;
28509;SDS011;15723;55.684;37.928;2023-02-28T08:56:30;5.72;;;4.47;;
28509;SDS011;15723;55.684;37.928;2023-02-28T08:58:56;7.13;;;4.28;;
28509;SDS011;15723;55.684;37.928;2023-02-28T09:01:27;6.05;;;4.32;;
28509;SDS011;15723;55.684;37.928;2023-02-28T09:03:55;7.28;;;4.22;;
28509;SDS011;15723;55.684;37.928;2023-02-28T09:06:22;5.53;;;3.45;;
28509;SDS011;15723;55.684;37.928;2023-02-28T09:08:50;9.70;;;4.70;;
28509;SDS011;15723;55.684;37.928;2023-02-28T09:11:17;5.38;;;3.90;;
28509;SDS011;15723;55.684;37.928;2023-02-28T09:13:44;6.40;;;4.32;;
28509;SDS011;15723;55.684;37.928;2023-02-28T09:16:12;8.32;;;4.35;;
28509;SDS011;15723;55.684;37.928;2023-02-28T09:18:40;7.70;;;4.65;;
28509;SDS011;15723;55.684;37.928;2023-02-28T09:21:07;7.82;;;4.22;;
28509;SDS011;15723;55.684;37.928;2023-02-28T09:23:35;5.85;;;3.85;;
28509;SDS011;15723;55.684;37.928;2023-02-28T09:26:03;6.38;;;4.05;;
28509;SDS011;15723;55.684;37.928;2023-02-28T09:28:30;7.88;;;4.25;;
28509;SDS011;15723;55.684;37.928;2023-02-28T09:30:56;8.98;;;4.70;;
28509;SDS011;15723;55.684;37.928;2023-02-28T09:33:24;9.00;;;4.10;;
28509;SDS011;15723;55.684;37.928;2023-02-28T09:35:57;5.60;;;3.90;;
28509;SDS011;15723;55.684;37.928;2023-02-28T09:38:25;6.30;;;4.45;;
28509;SDS011;15723;55.684;37.928;2023-02-28T09:40:54;7.20;;;4.57;;
28509;SDS011;15723;55.684;37.928;2023-02-28T09:43:24;8.45;;;4.65;;
28509;SDS011;15723;55.684;37.928;2023-02-28T09:45:54;11.95;;;5.22;;
28509;SDS011;15723;55.684;37.928;2023-02-28T09:48:32;8.05;;;4.88;;
28509;SDS011;15723;55.684;37.928;2023-02-28T09:51:04;6.63;;;4.30;;
28509;SDS011;15723;55.684;37.928;2023-02-28T09:53:38;8.57;;;5.30;;
28509;SDS011;15723;55.684;37.928;2023-02-28T09:56:09;8.15;;;4.90;;
28509;SDS011;15723;55.684;37.928;2023-02-28T09:58:47;9.88;;;4.57;;
28509;SDS011;15723;55.684;37.928;2023-02-28T10:04:03;7.20;;;4.07;;
28509;SDS011;15723;55.684;37.928;2023-02-28T10:06:44;6.22;;;3.60;;
28509;SDS011;15723;55.684;37.928;2023-02-28T10:09:25;5.70;;;3.38;;
28509;SDS011;15723;55.684;37.928;2023-02-28T10:11:56;7.18;;;3.70;;
28509;SDS011;15723;55.684;37.928;2023-02-28T10:14:30;7.28;;;3.42;;
28509;SDS011;15723;55.684;37.928;2023-02-28T10:17:10;5.78;;;3.60;;
28509;SDS011;15723;55.684;37.928;2023-02-28T10:22:19;5.90;;;4.32;;
28509;SDS011;15723;55.684;37.928;2023-02-28T10:24:52;3.90;;;3.03;;
28509;SDS011;15723;55.684;37.928;2023-02-28T10:27:26;8.07;;;3.55;;
28509;SDS011;15723;55.684;37.928;2023-02-28T10:30:01;6.45;;;3.10;;
28509;SDS011;15723;55.684;37.928;2023-02-28T10:32:32;6.72;;;3.85;;
28509;SDS011;15723;55.684;37.928;2023-02-28T10:37:32;6.05;;;3.45;;
28509;SDS011;15723;55.684;37.928;2023-02-28T10:40:04;5.90;;;3.80;;
28509;SDS011;15723;55.684;37.928;2023-02-28T10:42:55;6.70;;;4.00;;
28509;SDS011;15723;55.684;37.928;2023-02-28T10:45:26;4.57;;;3.20;;
28509;SDS011;15723;55.684;37.928;2023-02-28T10:47:57;5.40;;;3.50;;
28509;SDS011;15723;55.684;37.928;2023-02-28T10:58:50;6.00;;;3.78;;
28509;SDS011;15723;55.684;37.928;2023-02-28T11:01:20;5.25;;;3.88;;
28509;SDS011;15723;55.684;37.928;2023-02-28T11:03:53;6.13;;;4.22;;
28509;SDS011;15723;55.684;37.928;2023-02-28T11:06:20;5.28;;;3.45;;
28509;SDS011;15723;55.684;37.928;2023-02-28T11:08:50;5.82;;;4.45;;
28509;SDS011;15723;55.684;37.928;2023-02-28T11:11:17;8.45;;;4.32;;
28509;SDS011;15723;55.684;37.928;2023-02-28T11:13:45;6.70;;;3.72;;
28509;SDS011;15723;55.684;37.928;2023-02-28T11:16:13;6.00;;;3.75;;
28509;SDS011;15723;55.684;37.928;2023-02-28T11:24:04;7.00;;;4.72;;
28509;SDS011;15723;55.684;37.928;2023-02-28T11:26:46;6.65;;;3.50;;
28509;SDS011;15723;55.684;37.928;2023-02-28T11:29:20;7.97;;;4.13;;
28509;SDS011;15723;55.684;37.928;2023-02-28T11:34:39;7.70;;;4.05;;
28509;SDS011;15723;55.684;37.928;2023-02-28T11:37:15;6.60;;;4.10;;
28509;SDS011;15723;55.684;37.928;2023-02-28T11:39:44;9.82;;;4.38;;
28509;SDS011;15723;55.684;37.928;2023-02-28T11:42:16;5.82;;;4.15;;
28509;SDS011;15723;55.684;37.928;2023-02-28T11:45:01;6.30;;;3.95;;
28509;SDS011;15723;55.684;37.928;2023-02-28T11:47:48;10.80;;;4.65;;
28509;SDS011;15723;55.684;37.928;2023-02-28T11:53:14;8.63;;;4.45;;
28509;SDS011;15723;55.684;37.928;2023-02-28T11:58:40;9.27;;;4.97;;
28509;SDS011;15723;55.684;37.928;2023-02-28T12:01:56;7.47;;;3.92;;
28509;SDS011;15723;55.684;37.928;2023-02-28T12:29:09;7.00;;;4.15;;
28509;SDS011;15723;55.684;37.928;2023-02-28T12:31:55;8.02;;;4.13;;
28509;SDS011;15723;55.684;37.928;2023-02-28T12:34:47;7.28;;;4.63;;
28509;SDS011;15723;55.684;37.928;2023-02-28T12:37:17;7.75;;;4.97;;
28509;SDS011;15723;55.684;37.928;2023-02-28T12:39:51;7.85;;;4.05;;
28509;SDS011;15723;55.684;37.928;2023-02-28T12:42:28;5.25;;;3.97;;
28509;SDS011;15723;55.684;37.928;2023-02-28T12:45:02;6.40;;;3.70;;
28509;SDS011;15723;55.684;37.928;2023-02-28T12:47:44;8.05;;;4.13;;
28509;SDS011;15723;55.684;37.928;2023-02-28T12:50:14;5.47;;;3.60;;
28509;SDS011;15723;55.684;37.928;2023-02-28T12:56:00;5.78;;;3.75;;
28509;SDS011;15723;55.684;37.928;2023-02-28T12:58:53;6.53;;;3.78;;
28509;SDS011;15723;55.684;37.928;2023-02-28T13:04:28;5.93;;;3.75;;
28509;SDS011;15723;55.684;37.928;2023-02-28T13:10:03;7.18;;;3.70;;
28509;SDS011;15723;55.684;37.928;2023-02-28T13:12:33;5.28;;;3.63;;
28509;SDS011;15723;55.684;37.928;2023-02-28T13:15:22;7.07;;;4.75;;
28509;SDS011;15723;55.684;37.928;2023-02-28T13:17:51;5.22;;;3.65;;
28509;SDS011;15723;55.684;37.928;2023-02-28T13:20:26;5.47;;;3.72;;
28509;SDS011;15723;55.684;37.928;2023-02-28T13:23:00;8.32;;;3.78;;
28509;SDS011;15723;55.684;37.928;2023-02-28T13:27:59;5.78;;;3.90;;
28509;SDS011;15723;55.684;37.928;2023-02-28T13:38:36;6.15;;;3.40;;
28509;SDS011;15723;55.684;37.928;2023-02-28T13:49:23;5.50;;;3.92;;
28509;SDS011;15723;55.684;37.928;2023-02-28T13:54:45;5.63;;;3.78;;
28509;SDS011;15723;55.684;37.928;2023-02-28T14:06:22;5.93;;;3.83;;
28509;SDS011;15723;55.684;37.928;2023-02-28T14:08:57;6.43;;;4.07;;
28509;SDS011;15723;55.684;37.928;2023-02-28T14:11:32;6.88;;;3.95;;
28509;SDS011;15723;55.684;37.928;2023-02-28T14:14:03;5.68;;;3.80;;
28509;SDS011;15723;55.684;37.928;2023-02-28T14:16:41;5.65;;;3.85;;
28509;SDS011;15723;55.684;37.928;2023-02-28T14:19:13;7.72;;;4.35;;
28509;SDS011;15723;55.684;37.928;2023-02-28T14:21:52;7.07;;;4.10;;
28509;SDS011;15723;55.684;37.928;2023-02-28T14:25:09;6.95;;;4.22;;
28509;SDS011;15723;55.684;37.928;2023-02-28T14:33:59;6.57;;;4.23;;
28509;SDS011;15723;55.684;37.928;2023-02-28T14:36:52;6.68;;;4.40;;
28509;SDS011;15723;55.684;37.928;2023-02-28T14:39:21;6.45;;;4.32;;
28509;SDS011;15723;55.684;37.928;2023-02-28T14:41:50;8.40;;;4.20;;
28509;SDS011;15723;55.684;37.928;2023-02-28T14:44:24;6.45;;;4.95;;
28509;SDS011;15723;55.684;37.928;2023-02-28T14:46:56;7.35;;;4.88;;
28509;SDS011;15723;55.684;37.928;2023-02-28T14:49:30;6.15;;;4.40;;
28509;SDS011;15723;55.684;37.928;2023-02-28T14:52:13;7.97;;;4.00;;
28509;SDS011;15723;55.684;37.928;2023-02-28T14:54:43;4.18;;;3.70;;
28509;SDS011;15723;55.684;37.928;2023-02-28T14:57:26;6.53;;;4.28;;
28509;SDS011;15723;55.684;37.928;2023-02-28T15:00:04;6.03;;;3.88;;
28509;SDS011;15723;55.684;37.928;2023-02-28T15:02:37;6.70;;;4.75;;
28509;SDS011;15723;55.684;37.928;2023-02-28T15:05:18;4.85;;;3.85;;
28509;SDS011;15723;55.684;37.928;2023-02-28T15:08:00;11.45;;;5.97;;
28509;SDS011;15723;55.684;37.928;2023-02-28T15:10:44;4.95;;;3.55;;
28509;SDS011;15723;55.684;37.928;2023-02-28T15:13:17;5.70;;;3.60;;
28509;SDS011;15723;55.684;37.928;2023-02-28T15:15:52;5.82;;;4.20;;
28509;SDS011;15723;55.684;37.928;2023-02-28T15:18:26;5.90;;;4.25;;
28509;SDS011;15723;55.684;37.928;2023-02-28T15:20:59;5.00;;;3.60;;
28509;SDS011;15723;55.684;37.928;2023-02-28T15:23:29;5.20;;;3.97;;
28509;SDS011;15723;55.684;37.928;2023-02-28T15:25:57;5.75;;;3.90;;
28509;SDS011;15723;55.684;37.928;2023-02-28T15:28:24;4.88;;;3.63;;
28509;SDS011;15723;55.684;37.928;2023-02-28T15:30:55;4.80;;;3.75;;
28509;SDS011;15723;55.684;37.928;2023-02-28T15:35:51;5.97;;;4.40;;
28509;SDS011;15723;55.684;37.928;2023-02-28T15:38:33;4.93;;;4.05;;
28509;SDS011;15723;55.684;37.928;2023-02-28T15:41:01;5.85;;;4.25;;
28509;SDS011;15723;55.684;37.928;2023-02-28T15:43:31;5.88;;;3.60;;
28509;SDS011;15723;55.684;37.928;2023-02-28T15:48:29;5.13;;;4.25;;
28509;SDS011;15723;55.684;37.928;2023-02-28T15:51:06;5.18;;;3.95;;
28509;SDS011;15723;55.684;37.928;2023-02-28T15:53:36;6.50;;;4.38;;
28509;SDS011;15723;55.684;37.928;2023-02-28T15:56:14;8.02;;;4.20;;
28509;SDS011;15723;55.684;37.928;2023-02-28T15:58:57;6.07;;;4.22;;
28509;SDS011;15723;55.684;37.928;2023-02-28T16:01:27;4.95;;;3.83;;
28509;SDS011;15723;55.684;37.928;2023-02-28T16:04:13;4.63;;;4.13;;
28509;SDS011;15723;55.684;37.928;2023-02-28T16:07:14;4.68;;;3.40;;
28509;SDS011;15723;55.684;37.928;2023-02-28T16:09:38;5.88;;;3.45;;
28509;SDS011;15723;55.684;37.928;2023-02-28T16:12:04;7.97;;;4.28;;
28509;SDS011;15723;55.684;37.928;2023-02-28T16:14:31;4.47;;;3.53;;
28509;SDS011;15723;55.684;37.928;2023-02-28T16:17:04;6.90;;;3.95;;
28509;SDS011;15723;55.684;37.928;2023-02-28T16:19:35;7.20;;;3.97;;
28509;SDS011;15723;55.684;37.928;2023-02-28T16:22:02;5.85;;;4.20;;
28509;SDS011;15723;55.684;37.928;2023-02-28T16:24:28;4.93;;;3.60;;
28509;SDS011;15723;55.684;37.928;2023-02-28T16:26:54;4.95;;;3.78;;
28509;SDS011;15723;55.684;37.928;2023-02-28T16:29:27;5.43;;;3.90;;
28509;SDS011;15723;55.684;37.928;2023-02-28T16:31:56;8.30;;;4.15;;
28509;SDS011;15723;55.684;37.928;2023-02-28T16:34:23;6.15;;;3.65;;
28509;SDS011;15723;55.684;37.928;2023-02-28T16:36:50;5.45;;;3.90;;
28509;SDS011;15723;55.684;37.928;2023-02-28T16:39:16;5.63;;;3.72;;
28509;SDS011;15723;55.684;37.928;2023-02-28T16:41:45;5.70;;;3.72;;
28509;SDS011;15723;55.684;37.928;2023-02-28T16:44:17;6.32;;;3.70;;
28509;SDS011;15723;55.684;37.928;2023-02-28T16:46:52;4.75;;;3.42;;
28509;SDS011;15723;55.684;37.928;2023-02-28T16:49:18;5.38;;;3.90;;
28509;SDS011;15723;55.684;37.928;2023-02-28T16:51:44;7.40;;;4.28;;
28509;SDS011;15723;55.684;37.928;2023-02-28T16:54:11;9.02;;;4.60;;
28509;SDS011;15723;55.684;37.928;2023-02-28T16:56:37;5.85;;;3.80;;
28509;SDS011;15723;55.684;37.928;2023-02-28T17:01:37;5.53;;;3.83;;
28509;SDS011;15723;55.684;37.928;2023-02-28T17:04:03;5.38;;;4.00;;
28509;SDS011;15723;55.684;37.928;2023-02-28T17:06:29;4.88;;;3.60;;
28509;SDS011;15723;55.684;37.928;2023-02-28T17:08:57;5.57;;;4.20;;
28509;SDS011;15723;55.684;37.928;2023-02-28T17:11:25;4.95;;;3.50;;
28509;SDS011;15723;55.684;37.928;2023-02-28T17:13:51;5.70;;;3.38;;
28509;SDS011;15723;55.684;37.928;2023-02-28T17:16:24;6.32;;;4.20;;
28509;SDS011;15723;55.684;37.928;2023-02-28T17:18:55;6.90;;;4.05;;